createdAt,value
2023-01-30T00:00:30.028Z,97780.94
2023-01-30T00:02:56.666Z,97781.13
2023-01-30T00:05:23.367Z,97781.88
2023-01-30T00:07:50.215Z,97773.97
2023-01-30T00:10:17.219Z,97777.47
2023-01-30T00:12:44.112Z,97783.38
2023-01-30T00:15:10.773Z,97783.19
2023-01-30T00:17:37.436Z,97782.25
2023-01-30T00:20:04.402Z,97780.41
2023-01-30T00:22:31.028Z,97778.44
2023-01-30T00:24:57.802Z,97777.31
2023-01-30T00:27:24.683Z,97778.09
2023-01-30T00:30:02.188Z,97780.72
2023-01-30T00:32:29.853Z,97773.91
2023-01-30T00:34:56.504Z,97780.56
2023-01-30T00:37:23.150Z,97776.00
2023-01-30T00:39:50.011Z,97769.09
2023-01-30T00:42:16.662Z,97765.72
2023-01-30T00:44:43.354Z,97764.63
2023-01-30T00:47:10.003Z,97757.72
2023-01-30T00:49:36.876Z,97762.16
2023-01-30T00:52:03.611Z,97758.56
2023-01-30T00:54:30.550Z,97754.66
2023-01-30T00:56:57.233Z,97772.41
2023-01-30T00:59:23.893Z,97766.44
2023-01-30T01:01:50.634Z,97765.59
2023-01-30T01:04:17.299Z,97769.34
2023-01-30T01:06:43.940Z,97782.59
2023-01-30T01:09:10.604Z,97772.72
2023-01-30T01:11:37.278Z,97776.97
2023-01-30T01:14:04.714Z,97770.63
2023-01-30T01:16:31.677Z,97765.28
2023-01-30T01:18:58.553Z,97777.34
2023-01-30T01:21:25.298Z,97779.41
2023-01-30T01:23:52.755Z,97780.56
2023-01-30T01:26:19.841Z,97781.59
2023-01-30T01:28:46.612Z,97769.97
2023-01-30T01:31:14.507Z,97783.13
2023-01-30T01:33:41.212Z,97768.34
2023-01-30T01:36:08.213Z,97760.66
2023-01-30T01:38:34.867Z,97756.72
2023-01-30T01:41:01.554Z,97744.66
2023-01-30T01:43:32.036Z,97756.25
2023-01-30T01:46:20.856Z,97751.13
2023-01-30T01:48:49.405Z,97743.03
2023-01-30T01:51:37.356Z,97747.16
2023-01-30T01:54:07.018Z,97749.59
2023-01-30T01:56:33.744Z,97753.06
2023-01-30T01:59:05.213Z,97750.44
2023-01-30T02:01:31.874Z,97762.84
2023-01-30T02:04:00.490Z,97761.91
2023-01-30T02:06:27.269Z,97752.41
2023-01-30T02:08:55.760Z,97753.34
2023-01-30T02:11:25.871Z,97758.50
2023-01-30T02:13:52.575Z,97754.84
2023-01-30T02:16:19.264Z,97747.91
2023-01-30T02:18:45.945Z,97755.69
2023-01-30T02:21:43.126Z,97756.13
2023-01-30T02:24:36.037Z,97759.81
2023-01-30T02:27:17.624Z,97751.56
2023-01-30T02:29:56.319Z,97754.47
2023-01-30T02:32:29.743Z,97756.09
2023-01-30T02:35:30.941Z,97756.84
2023-01-30T02:38:06.206Z,97749.28
2023-01-30T02:41:03.839Z,97754.53
2023-01-30T02:43:34.467Z,97751.41
2023-01-30T02:46:05.702Z,97763.47
2023-01-30T02:48:49.495Z,97772.19
2023-01-30T02:51:33.738Z,97788.94
2023-01-30T02:54:00.375Z,97793.34
2023-01-30T02:56:27.091Z,97773.91
2023-01-30T02:58:59.700Z,97778.31
2023-01-30T03:01:44.520Z,97784.13
2023-01-30T03:04:38.977Z,97789.31
2023-01-30T03:07:24.311Z,97796.31
2023-01-30T03:10:13.042Z,97790.16
2023-01-30T03:13:17.153Z,97796.09
2023-01-30T03:15:55.832Z,97787.53
2023-01-30T03:18:22.559Z,97796.28
2023-01-30T03:20:49.278Z,97814.69
2023-01-30T03:23:15.928Z,97822.00
2023-01-30T03:25:42.881Z,97823.00
2023-01-30T03:28:09.541Z,97836.91
2023-01-30T03:30:36.243Z,97855.16
2023-01-30T03:33:02.945Z,97851.06
2023-01-30T03:35:29.714Z,97842.66
2023-01-30T03:37:56.374Z,97831.06
2023-01-30T03:40:23.079Z,97838.44
2023-01-30T03:42:49.773Z,97843.34
2023-01-30T03:45:16.760Z,97848.34
2023-01-30T03:47:43.531Z,97825.72
2023-01-30T03:50:10.783Z,97833.09
2023-01-30T03:52:37.547Z,97846.56
2023-01-30T03:55:04.426Z,97843.09
2023-01-30T03:57:31.110Z,97852.75
2023-01-30T03:59:57.906Z,97865.06
2023-01-30T04:02:24.615Z,97857.59
2023-01-30T04:04:51.399Z,97857.09
2023-01-30T04:07:18.103Z,97856.84
2023-01-30T04:09:44.775Z,97860.03
2023-01-30T04:12:11.427Z,97853.59
2023-01-30T04:14:38.091Z,97851.16
2023-01-30T04:17:04.749Z,97858.28
2023-01-30T04:19:31.382Z,97844.72
2023-01-30T04:21:58.022Z,97835.47
2023-01-30T04:24:24.658Z,97828.09
2023-01-30T04:26:51.310Z,97831.81
2023-01-30T04:29:17.960Z,97815.63
2023-01-30T04:31:44.706Z,97810.28
2023-01-30T04:34:11.375Z,97815.00
2023-01-30T04:36:38.019Z,97813.50
2023-01-30T04:39:04.677Z,97809.78
2023-01-30T04:41:31.328Z,97818.06
2023-01-30T04:43:58.066Z,97805.63
2023-01-30T04:46:24.740Z,97784.25
2023-01-30T04:48:51.419Z,97791.19
2023-01-30T04:51:18.091Z,97797.22
2023-01-30T04:53:44.747Z,97779.50
2023-01-30T04:56:11.408Z,97781.50
2023-01-30T04:58:38.053Z,97780.16
2023-01-30T05:01:22.423Z,97782.00
2023-01-30T05:03:52.427Z,97778.81
2023-01-30T05:06:19.308Z,97794.63
2023-01-30T05:08:53.055Z,97789.72
2023-01-30T05:11:20.089Z,97799.41
2023-01-30T05:13:47.069Z,97801.69
2023-01-30T05:16:14.160Z,97801.97
2023-01-30T05:18:40.858Z,97795.19
2023-01-30T05:21:14.775Z,97787.97
2023-01-30T05:23:41.464Z,97774.59
2023-01-30T05:26:09.699Z,97776.38
2023-01-30T05:28:36.365Z,97786.44
2023-01-30T05:31:03.593Z,97793.16
2023-01-30T05:33:30.313Z,97789.59
2023-01-30T05:35:57.020Z,97771.72
2023-01-30T05:38:23.722Z,97774.34
2023-01-30T05:41:03.628Z,97775.94
2023-01-30T05:43:30.388Z,97775.19
2023-01-30T05:45:57.774Z,97770.88
2023-01-30T05:48:24.982Z,97757.34
2023-01-30T05:50:52.446Z,97760.16
2023-01-30T05:53:19.629Z,97761.78
2023-01-30T05:55:46.285Z,97760.81
2023-01-30T05:58:15.893Z,97768.28
2023-01-30T06:00:42.572Z,97768.72
2023-01-30T06:03:09.248Z,97769.03
2023-01-30T06:05:37.784Z,97776.28
2023-01-30T06:08:04.433Z,97770.50
2023-01-30T06:10:31.095Z,97771.09
2023-01-30T06:12:57.804Z,97778.72
2023-01-30T06:15:24.460Z,97775.44
2023-01-30T06:17:51.139Z,97772.03
2023-01-30T06:20:17.885Z,97769.50
2023-01-30T06:22:44.528Z,97769.09
2023-01-30T06:25:11.208Z,97773.81
2023-01-30T06:27:37.868Z,97771.47
2023-01-30T06:30:04.966Z,97780.44
2023-01-30T06:32:31.620Z,97780.81
2023-01-30T06:34:58.271Z,97775.63
2023-01-30T06:37:24.923Z,97771.88
2023-01-30T06:39:51.592Z,97779.09
2023-01-30T06:42:18.253Z,97783.25
2023-01-30T06:44:44.897Z,97786.06
2023-01-30T06:47:11.564Z,97797.31
2023-01-30T06:49:38.232Z,97805.78
2023-01-30T06:52:05.021Z,97803.94
2023-01-30T06:54:31.690Z,97806.38
2023-01-30T06:56:58.355Z,97802.75
2023-01-30T06:59:25.004Z,97805.28
2023-01-30T07:01:51.686Z,97802.81
2023-01-30T07:04:18.384Z,97795.03
2023-01-30T07:06:45.058Z,97792.25
2023-01-30T07:09:11.882Z,97788.31
2023-01-30T07:11:38.567Z,97789.97
2023-01-30T07:14:06.408Z,97777.41
2023-01-30T07:16:33.928Z,97776.31
2023-01-30T07:19:00.595Z,97759.31
2023-01-30T07:21:27.256Z,97762.03
2023-01-30T07:23:53.906Z,97767.53
2023-01-30T07:26:20.639Z,97766.97
2023-01-30T07:28:47.370Z,97747.91
2023-01-30T07:31:14.011Z,97744.09
2023-01-30T07:33:40.656Z,97758.06
2023-01-30T07:36:07.482Z,97779.84
2023-01-30T07:38:34.160Z,97798.31
2023-01-30T07:41:00.817Z,97814.34
2023-01-30T07:43:27.457Z,97818.53
2023-01-30T07:45:54.561Z,97831.81
2023-01-30T07:48:21.202Z,97848.31
2023-01-30T07:50:47.872Z,97862.31
2023-01-30T07:53:16.140Z,97862.78
2023-01-30T07:55:42.827Z,97871.69
2023-01-30T07:58:12.685Z,97866.16
2023-01-30T08:00:39.343Z,97874.22
2023-01-30T08:03:06.013Z,97880.69
2023-01-30T08:05:32.653Z,97872.50
2023-01-30T08:07:59.338Z,97877.66
2023-01-30T08:10:28.203Z,97882.38
2023-01-30T08:12:54.883Z,97881.06
2023-01-30T08:15:22.901Z,97875.06
2023-01-30T08:17:56.218Z,97881.66
2023-01-30T08:20:23.394Z,97886.75
2023-01-30T08:22:50.070Z,97883.41
2023-01-30T08:25:16.787Z,97869.16
2023-01-30T08:27:43.557Z,97864.34
2023-01-30T08:30:11.364Z,97863.13
2023-01-30T08:32:38.343Z,97861.38
2023-01-30T08:35:05.301Z,97854.91
2023-01-30T08:37:31.971Z,97837.53
2023-01-30T08:39:58.683Z,97832.81
2023-01-30T08:42:25.374Z,97845.47
2023-01-30T08:44:52.065Z,97852.59
2023-01-30T08:47:18.721Z,97849.50
2023-01-30T08:49:45.434Z,97851.50
2023-01-30T08:52:12.110Z,97857.22
2023-01-30T08:54:38.747Z,97851.63
2023-01-30T08:57:05.467Z,97851.06
2023-01-30T08:59:32.140Z,97843.72
2023-01-30T09:01:58.804Z,97839.53
2023-01-30T09:04:25.474Z,97837.91
2023-01-30T09:06:52.503Z,97836.91
2023-01-30T09:09:19.211Z,97827.84
2023-01-30T09:11:45.895Z,97824.44
2023-01-30T09:14:12.551Z,97828.84
2023-01-30T09:16:39.463Z,97830.66
2023-01-30T09:19:06.136Z,97847.56
2023-01-30T09:21:32.791Z,97853.19
2023-01-30T09:23:59.599Z,97851.09
2023-01-30T09:26:26.299Z,97846.66
2023-01-30T09:28:53.225Z,97832.97
2023-01-30T09:31:20.073Z,97834.19
2023-01-30T09:33:46.800Z,97847.97
2023-01-30T09:36:13.480Z,97841.13
2023-01-30T09:38:40.122Z,97836.59
2023-01-30T09:41:30.830Z,97840.84
2023-01-30T09:44:18.586Z,97833.50
2023-01-30T09:47:01.030Z,97826.94
2023-01-30T09:49:38.577Z,97837.06
2023-01-30T09:52:17.497Z,97853.41
2023-01-30T09:54:44.579Z,97861.34
2023-01-30T09:57:21.141Z,97872.97
2023-01-30T09:59:58.755Z,97873.38
2023-01-30T10:02:53.250Z,97880.06
2023-01-30T10:05:19.917Z,97881.88
2023-01-30T10:07:56.787Z,97870.19
2023-01-30T10:10:29.488Z,97867.34
2023-01-30T10:13:05.122Z,97865.97
2023-01-30T10:15:50.979Z,97860.16
2023-01-30T10:18:43.912Z,97865.19
2023-01-30T10:21:31.422Z,97880.31
2023-01-30T10:24:16.228Z,97883.50
2023-01-30T10:26:42.936Z,97884.31
2023-01-30T10:29:14.021Z,97895.63
2023-01-30T10:31:44.185Z,97902.50
2023-01-30T10:34:14.714Z,97903.78
2023-01-30T10:37:13.117Z,97899.81
2023-01-30T10:39:55.138Z,97899.91
2023-01-30T10:42:50.900Z,97900.38
2023-01-30T10:45:19.323Z,97916.78
2023-01-30T10:48:19.973Z,97905.28
2023-01-30T10:50:52.804Z,97893.47
2023-01-30T10:53:37.649Z,97900.63
2023-01-30T10:56:30.259Z,97899.25
2023-01-30T10:59:18.530Z,97915.25
2023-01-30T11:01:45.826Z,97922.91
2023-01-30T11:04:36.993Z,97916.72
2023-01-30T11:07:03.659Z,97919.22
2023-01-30T11:09:40.373Z,97920.72
2023-01-30T11:12:07.161Z,97932.03
2023-01-30T11:15:00.829Z,97934.31
2023-01-30T11:17:35.324Z,97944.56
2023-01-30T11:20:08.041Z,97931.25
2023-01-30T11:22:34.817Z,97922.28
2023-01-30T11:25:06.045Z,97920.41
2023-01-30T11:27:33.890Z,97908.94
2023-01-30T11:30:17.589Z,97889.47
2023-01-30T11:32:45.036Z,97875.44
2023-01-30T11:35:14.532Z,97879.25
2023-01-30T11:37:42.399Z,97864.22
2023-01-30T11:40:18.644Z,97848.81
2023-01-30T11:42:50.753Z,97844.84
2023-01-30T11:45:20.412Z,97835.44
2023-01-30T11:48:04.471Z,97846.84
2023-01-30T11:50:50.543Z,97865.16
2023-01-30T11:53:36.344Z,97859.63
2023-01-30T11:56:14.820Z,97854.56
2023-01-30T11:58:41.513Z,97849.25
2023-01-30T12:01:09.679Z,97851.06
2023-01-30T12:03:58.349Z,97842.47
2023-01-30T12:06:37.843Z,97832.72
2023-01-30T12:09:04.674Z,97818.03
2023-01-30T12:11:37.065Z,97796.53
2023-01-30T12:14:34.647Z,97796.19
2023-01-30T12:17:11.527Z,97799.38
2023-01-30T12:20:02.729Z,97789.81
2023-01-30T12:22:33.807Z,97778.81
2023-01-30T12:25:01.881Z,97781.16
2023-01-30T12:27:37.742Z,97791.28
2023-01-30T12:30:24.220Z,97793.34
2023-01-30T12:32:58.609Z,97789.47
2023-01-30T12:35:29.197Z,97786.97
2023-01-30T12:38:31.531Z,97770.06
2023-01-30T12:41:23.568Z,97770.38
2023-01-30T12:43:53.720Z,97781.63
2023-01-30T12:46:26.298Z,97775.59
2023-01-30T12:49:12.181Z,97777.94
2023-01-30T12:51:44.727Z,97774.44
2023-01-30T12:54:30.128Z,97776.84
2023-01-30T12:57:14.762Z,97767.44
2023-01-30T13:00:18.813Z,97758.03
2023-01-30T13:03:04.437Z,97756.31
2023-01-30T13:06:00.776Z,97753.56
2023-01-30T13:08:37.477Z,97732.50
2023-01-30T13:11:24.647Z,97744.91
2023-01-30T13:13:54.737Z,97735.13
2023-01-30T13:16:42.384Z,97735.75
2023-01-30T13:19:25.442Z,97737.09
2023-01-30T13:21:57.640Z,97738.78
2023-01-30T13:24:26.172Z,97739.53
2023-01-30T13:26:52.947Z,97740.50
2023-01-30T13:29:37.245Z,97738.56
2023-01-30T13:32:06.527Z,97731.69
2023-01-30T13:34:38.929Z,97726.97
2023-01-30T13:37:18.966Z,97723.09
2023-01-30T13:40:13.549Z,97732.25
2023-01-30T13:42:52.764Z,97718.84
2023-01-30T13:45:24.072Z,97727.19
2023-01-30T13:48:29.788Z,97739.22
2023-01-30T13:51:27.273Z,97742.50
2023-01-30T13:54:27.286Z,97744.03
2023-01-30T13:57:09.069Z,97745.97
2023-01-30T13:59:35.621Z,97749.31
2023-01-30T14:02:04.916Z,97753.31
2023-01-30T14:04:40.516Z,97756.22
2023-01-30T14:07:24.742Z,97753.81
2023-01-30T14:10:02.970Z,97747.34
2023-01-30T14:12:36.656Z,97750.38
2023-01-30T14:15:07.026Z,97760.13
2023-01-30T14:17:33.753Z,97759.63
2023-01-30T14:20:15.354Z,97751.31
2023-01-30T14:22:52.399Z,97754.19
2023-01-30T14:25:25.184Z,97742.69
2023-01-30T14:27:55.887Z,97762.13
2023-01-30T14:30:31.186Z,97748.09
2023-01-30T14:33:02.078Z,97761.16
2023-01-30T14:35:32.745Z,97756.69
2023-01-30T14:38:17.950Z,97758.97
2023-01-30T14:41:00.632Z,97758.53
2023-01-30T14:43:37.105Z,97752.81
2023-01-30T14:46:19.673Z,97761.19
2023-01-30T14:48:49.270Z,97758.22
2023-01-30T14:51:26.223Z,97766.81
2023-01-30T14:54:15.136Z,97766.25
2023-01-30T14:56:43.517Z,97778.06
2023-01-30T14:59:15.917Z,97769.06
2023-01-30T15:01:55.942Z,97770.00
2023-01-30T15:04:22.679Z,97773.47
2023-01-30T15:06:49.336Z,97772.03
2023-01-30T15:09:19.804Z,97770.13
2023-01-30T15:11:51.690Z,97769.88
2023-01-30T15:14:28.029Z,97774.22
2023-01-30T15:17:27.641Z,97768.53
2023-01-30T15:20:33.258Z,97767.13
2023-01-30T15:23:07.810Z,97765.31
2023-01-30T15:25:43.456Z,97772.31
2023-01-30T15:28:31.610Z,97776.66
2023-01-30T15:31:13.274Z,97775.09
2023-01-30T15:33:54.939Z,97759.19
2023-01-30T15:36:33.908Z,97757.94
2023-01-30T15:39:00.425Z,97766.63
2023-01-30T15:41:27.693Z,97760.34
2023-01-30T15:44:17.089Z,97765.44
2023-01-30T15:46:48.880Z,97761.44
2023-01-30T15:49:34.292Z,97755.81
2023-01-30T15:52:04.443Z,97761.69
2023-01-30T15:54:31.163Z,97765.66
2023-01-30T15:56:58.190Z,97770.25
2023-01-30T15:59:37.563Z,97767.72
2023-01-30T16:02:07.667Z,97777.50
2023-01-30T16:04:34.384Z,97769.66
2023-01-30T16:07:14.067Z,97776.16
2023-01-30T16:09:41.694Z,97780.03
2023-01-30T16:12:24.099Z,97771.38
2023-01-30T16:14:50.754Z,97774.84
2023-01-30T16:17:17.448Z,97783.28
2023-01-30T16:19:44.107Z,97789.31
2023-01-30T16:22:18.368Z,97793.28
2023-01-30T16:24:46.946Z,97790.81
2023-01-30T16:27:19.426Z,97787.16
2023-01-30T16:29:50.204Z,97800.28
2023-01-30T16:32:16.872Z,97794.38
2023-01-30T16:34:43.556Z,97805.88
2023-01-30T16:37:19.255Z,97803.44
2023-01-30T16:39:45.951Z,97812.91
2023-01-30T16:42:40.805Z,97811.22
2023-01-30T16:45:13.323Z,97802.66
2023-01-30T16:47:39.997Z,97794.09
2023-01-30T16:50:19.285Z,97805.50
2023-01-30T16:52:47.798Z,97805.28
2023-01-30T16:55:22.038Z,97803.94
2023-01-30T16:57:55.246Z,97801.31
2023-01-30T17:00:28.852Z,97802.28
2023-01-30T17:03:02.731Z,97796.09
2023-01-30T17:05:30.443Z,97789.75
2023-01-30T17:07:57.250Z,97809.25
2023-01-30T17:10:39.228Z,97810.06
2023-01-30T17:13:41.133Z,97818.25
2023-01-30T17:16:22.743Z,97807.66
2023-01-30T17:18:49.966Z,97804.44
2023-01-30T17:21:16.735Z,97805.69
2023-01-30T17:23:45.361Z,97812.66
2023-01-30T17:26:12.458Z,97821.66
2023-01-30T17:28:40.053Z,97821.53
2023-01-30T17:31:06.827Z,97832.03
2023-01-30T17:33:33.667Z,97827.84
2023-01-30T17:36:04.374Z,97830.84
2023-01-30T17:38:31.289Z,97844.59
2023-01-30T17:40:57.988Z,97839.72
2023-01-30T17:43:24.648Z,97833.28
2023-01-30T17:45:51.330Z,97838.91
2023-01-30T17:48:17.992Z,97839.47
2023-01-30T17:50:46.865Z,97846.41
2023-01-30T17:53:13.538Z,97848.66
2023-01-30T17:55:40.286Z,97853.22
2023-01-30T17:58:12.023Z,97857.84
2023-01-30T18:00:38.662Z,97854.94
2023-01-30T18:03:05.371Z,97849.13
2023-01-30T18:05:32.047Z,97849.25
2023-01-30T18:07:58.706Z,97856.97
2023-01-30T18:10:25.493Z,97859.59
2023-01-30T18:12:52.171Z,97866.81
2023-01-30T18:15:19.228Z,97866.09
2023-01-30T18:17:47.586Z,97859.19
2023-01-30T18:20:16.777Z,97873.09
2023-01-30T18:22:43.599Z,97879.22
2023-01-30T18:25:10.435Z,97871.41
2023-01-30T18:27:37.054Z,97875.81
2023-01-30T18:30:03.747Z,97881.47
2023-01-30T18:32:31.964Z,97879.91
2023-01-30T18:35:00.028Z,97879.47
2023-01-30T18:37:26.931Z,97881.47
2023-01-30T18:39:53.647Z,97877.25
2023-01-30T18:42:20.317Z,97887.44
2023-01-30T18:44:46.995Z,97883.09
2023-01-30T18:47:13.648Z,97880.34
2023-01-30T18:49:40.296Z,97883.13
2023-01-30T18:52:06.975Z,97890.38
2023-01-30T18:54:33.629Z,97884.41
2023-01-30T18:57:00.677Z,97881.75
2023-01-30T18:59:27.428Z,97886.22
2023-01-30T19:01:54.097Z,97886.41
2023-01-30T19:04:20.796Z,97894.59
2023-01-30T19:06:47.461Z,97891.72
2023-01-30T19:09:16.937Z,97897.66
2023-01-30T19:11:43.823Z,97888.97
2023-01-30T19:14:10.624Z,97886.41
2023-01-30T19:16:37.882Z,97888.31
2023-01-30T19:19:04.925Z,97885.41
2023-01-30T19:21:31.596Z,97888.06
2023-01-30T19:23:58.287Z,97881.47
2023-01-30T19:26:25.164Z,97890.13
2023-01-30T19:28:51.819Z,97889.41
2023-01-30T19:31:21.665Z,97888.91
2023-01-30T19:33:54.215Z,97890.19
2023-01-30T19:36:21.605Z,97897.41
2023-01-30T19:38:48.269Z,97891.44
2023-01-30T19:41:16.781Z,97889.56
2023-01-30T19:43:43.541Z,97894.22
2023-01-30T19:46:10.328Z,97897.63
2023-01-30T19:48:38.271Z,97890.84
2023-01-30T19:51:19.108Z,97890.72
2023-01-30T19:53:46.120Z,97902.16
2023-01-30T19:56:13.053Z,97898.78
2023-01-30T19:58:39.998Z,97902.91
2023-01-30T20:01:10.032Z,97901.31
2023-01-30T20:03:37.492Z,97897.19
2023-01-30T20:06:31.387Z,97892.75
2023-01-30T20:09:01.454Z,97893.94
2023-01-30T20:11:28.301Z,97896.59
2023-01-30T20:13:54.980Z,97897.44
2023-01-30T20:16:23.193Z,97888.66
2023-01-30T20:19:00.261Z,97892.63
2023-01-30T20:21:27.208Z,97886.50
2023-01-30T20:23:53.930Z,97888.53
2023-01-30T20:26:22.514Z,97896.78
2023-01-30T20:28:49.220Z,97902.66
2023-01-30T20:31:20.376Z,97898.50
2023-01-30T20:33:47.126Z,97898.19
2023-01-30T20:36:15.287Z,97901.16
2023-01-30T20:38:44.781Z,97907.63
2023-01-30T20:41:24.971Z,97901.59
2023-01-30T20:43:53.185Z,97914.41
2023-01-30T20:46:19.751Z,97921.50
2023-01-30T20:48:46.584Z,97919.38
2023-01-30T20:51:14.956Z,97911.44
2023-01-30T20:53:52.770Z,97911.00
2023-01-30T20:56:19.924Z,97909.09
2023-01-30T20:58:46.815Z,97911.34
2023-01-30T21:01:18.584Z,97923.59
2023-01-30T21:03:46.031Z,97917.38
2023-01-30T21:06:12.770Z,97919.16
2023-01-30T21:08:39.485Z,97916.31
2023-01-30T21:11:10.900Z,97912.69
2023-01-30T21:13:38.216Z,97915.78
2023-01-30T21:16:12.790Z,97918.44
2023-01-30T21:18:42.487Z,97910.91
2023-01-30T21:21:11.567Z,97904.03
2023-01-30T21:23:38.247Z,97911.00
2023-01-30T21:26:08.486Z,97901.16
2023-01-30T21:28:35.781Z,97899.69
2023-01-30T21:31:22.059Z,97887.94
2023-01-30T21:33:48.939Z,97893.78
2023-01-30T21:36:17.152Z,97901.50
2023-01-30T21:38:43.830Z,97888.06
2023-01-30T21:41:21.748Z,97880.44
2023-01-30T21:43:48.485Z,97886.38
2023-01-30T21:46:15.223Z,97887.94
2023-01-30T21:48:41.883Z,97889.72
2023-01-30T21:51:10.070Z,97891.22
2023-01-30T21:53:36.737Z,97881.88
2023-01-30T21:56:03.388Z,97883.16
2023-01-30T21:58:31.397Z,97876.78
2023-01-30T22:01:06.142Z,97862.09
2023-01-30T22:03:38.935Z,97867.81
2023-01-30T22:06:08.928Z,97869.50
2023-01-30T22:08:36.480Z,97865.06
2023-01-30T22:11:05.065Z,97866.75
2023-01-30T22:13:33.312Z,97876.06
2023-01-30T22:16:09.750Z,97869.81
2023-01-30T22:18:36.505Z,97873.19
2023-01-30T22:21:04.418Z,97870.78
2023-01-30T22:23:35.209Z,97877.53
2023-01-30T22:26:08.390Z,97870.09
2023-01-30T22:28:35.054Z,97868.19
2023-01-30T22:31:09.101Z,97869.19
2023-01-30T22:33:36.396Z,97879.84
2023-01-30T22:36:06.468Z,97878.28
2023-01-30T22:38:33.588Z,97875.78
2023-01-30T22:41:00.175Z,97881.09
2023-01-30T22:43:29.560Z,97880.75
2023-01-30T22:46:03.851Z,97887.81
2023-01-30T22:48:30.557Z,97886.13
2023-01-30T22:51:01.571Z,97893.69
2023-01-30T22:53:31.998Z,97892.31
2023-01-30T22:56:00.673Z,97896.31
2023-01-30T22:58:27.326Z,97883.50
2023-01-30T23:00:53.990Z,97887.81
2023-01-30T23:03:20.708Z,97898.22
2023-01-30T23:05:59.573Z,97888.66
2023-01-30T23:08:26.633Z,97897.75
2023-01-30T23:10:53.316Z,97889.47
2023-01-30T23:13:19.993Z,97894.59
2023-01-30T23:15:46.788Z,97891.25
2023-01-30T23:18:14.047Z,97895.75
2023-01-30T23:20:40.977Z,97894.78
2023-01-30T23:23:07.666Z,97894.31
2023-01-30T23:25:34.416Z,97889.88
2023-01-30T23:28:01.100Z,97896.78
2023-01-30T23:30:27.761Z,97895.41
2023-01-30T23:32:54.481Z,97894.03
2023-01-30T23:35:21.679Z,97891.91
2023-01-30T23:37:48.590Z,97887.38
2023-01-30T23:40:15.369Z,97895.19
2023-01-30T23:42:42.277Z,97893.50
2023-01-30T23:45:09.274Z,97881.44
2023-01-30T23:47:36.325Z,97884.75
2023-01-30T23:50:03.555Z,97883.53
2023-01-30T23:52:30.385Z,97871.66
2023-01-30T23:54:57.077Z,97871.94
2023-01-30T23:57:23.738Z,97866.69
2023-01-30T23:59:50.426Z,97865.66
